createdAt,value
2019-02-26T00:03:59.190Z,3.00
2019-02-26T00:08:05.508Z,3.90
2019-02-26T00:12:10.698Z,2.90
2019-02-26T00:16:18.400Z,2.40
2019-02-26T00:20:23.164Z,2.50
2019-02-26T00:24:30.550Z,2.00
2019-02-26T00:28:36.589Z,3.40
2019-02-26T00:32:42.140Z,3.27
2019-02-26T00:36:47.403Z,3.43
2019-02-26T00:40:52.658Z,3.43
2019-02-26T00:45:00.120Z,3.00
2019-02-26T00:49:05.775Z,2.10
2019-02-26T00:53:12.238Z,1.97
2019-02-26T00:57:17.558Z,3.40
2019-02-26T01:01:23.868Z,2.20
2019-02-26T01:05:29.061Z,3.03
2019-02-26T01:09:34.758Z,3.10
2019-02-26T01:13:40.141Z,2.60
2019-02-26T01:17:45.366Z,3.20
2019-02-26T01:21:50.998Z,2.83
2019-02-26T01:25:56.194Z,2.90
2019-02-26T01:30:03.363Z,2.57
2019-02-26T01:34:11.014Z,2.03
2019-02-26T01:38:16.633Z,2.80
2019-02-26T01:42:24.341Z,2.33
2019-02-26T01:46:30.022Z,3.00
2019-02-26T01:50:37.859Z,2.30
2019-02-26T01:54:42.890Z,2.00
2019-02-26T01:58:56.383Z,2.10
2019-02-26T02:02:55.318Z,2.07
2019-02-26T02:07:03.507Z,2.27
2019-02-26T02:11:09.335Z,2.60
2019-02-26T02:15:17.916Z,2.90
2019-02-26T02:19:23.393Z,2.07
2019-02-26T02:23:30.333Z,1.63
2019-02-26T02:27:35.602Z,2.27
2019-02-26T02:31:40.953Z,2.37
2019-02-26T02:35:46.141Z,2.90
2019-02-26T02:39:51.381Z,2.83
2019-02-26T02:43:56.653Z,2.60
2019-02-26T02:48:03.272Z,2.50
2019-02-26T02:52:11.852Z,2.27
2019-02-26T02:56:17.977Z,1.80
2019-02-26T03:00:26.060Z,2.07
2019-02-26T03:04:31.734Z,2.10
2019-02-26T03:08:39.297Z,1.70
2019-02-26T03:12:48.644Z,1.60
2019-02-26T03:16:53.383Z,2.20
2019-02-26T03:20:59.945Z,1.80
2019-02-26T03:25:05.339Z,2.63
2019-02-26T03:29:10.577Z,2.23
2019-02-26T03:33:15.939Z,1.50
2019-02-26T03:37:23.269Z,4.53
2019-02-26T03:41:29.078Z,2.60
2019-02-26T03:45:35.001Z,2.87
2019-02-26T03:49:42.232Z,4.80
2019-02-26T03:53:47.333Z,4.87
2019-02-26T03:57:54.327Z,5.83
2019-02-26T04:01:59.704Z,3.60
2019-02-26T04:06:07.513Z,2.87
2019-02-26T04:10:11.860Z,3.60
2019-02-26T04:14:18.110Z,2.67
2019-02-26T04:18:24.155Z,3.70
2019-02-26T04:22:31.130Z,2.00
2019-02-26T04:27:17.255Z,2.23
2019-02-26T04:31:54.531Z,2.00
2019-02-26T04:36:54.971Z,2.20
2019-02-26T04:41:39.707Z,1.10
2019-02-26T04:46:36.690Z,1.43
2019-02-26T04:50:41.570Z,1.40
2019-02-26T04:54:47.952Z,2.33
2019-02-26T04:58:53.611Z,1.33
2019-02-26T05:02:58.760Z,0.70
2019-02-26T05:07:05.151Z,0.60
2019-02-26T05:11:14.740Z,0.77
2019-02-26T05:15:20.284Z,0.80
2019-02-26T05:19:24.601Z,0.83
2019-02-26T05:23:31.703Z,1.10
2019-02-26T05:27:38.922Z,0.70
2019-02-26T05:31:43.523Z,0.60
2019-02-26T05:35:51.493Z,1.03
2019-02-26T05:39:56.036Z,0.90
2019-02-26T05:44:04.170Z,1.00
2019-02-26T05:48:07.975Z,1.00
2019-02-26T05:52:13.095Z,1.17
2019-02-26T05:56:20.162Z,1.03
2019-02-26T06:00:28.447Z,0.87
2019-02-26T06:04:32.028Z,1.43
2019-02-26T06:08:39.249Z,2.00
2019-02-26T06:12:46.609Z,2.03
2019-02-26T06:16:53.753Z,1.47
2019-02-26T06:21:00.648Z,2.37
2019-02-26T06:25:09.614Z,2.27
2019-02-26T06:29:11.270Z,2.47
2019-02-26T06:33:16.881Z,2.43
2019-02-26T06:37:23.689Z,2.70
2019-02-26T06:41:28.773Z,1.73
2019-02-26T06:45:35.568Z,2.00
2019-02-26T06:49:42.801Z,2.23
2019-02-26T06:53:49.819Z,2.57
2019-02-26T06:57:58.173Z,3.30
2019-02-26T07:02:03.447Z,2.30
2019-02-26T07:06:08.764Z,2.57
2019-02-26T07:10:18.346Z,2.33
2019-02-26T07:14:22.446Z,3.20
2019-02-26T07:18:28.638Z,2.10
2019-02-26T07:22:33.807Z,2.90
2019-02-26T07:26:41.084Z,2.30
2019-02-26T07:30:46.906Z,2.33
2019-02-26T07:34:52.286Z,1.10
2019-02-26T07:38:57.453Z,1.90
2019-02-26T07:43:04.887Z,1.07
2019-02-26T07:47:11.289Z,1.50
2019-02-26T07:51:16.601Z,0.60
2019-02-26T07:55:21.762Z,0.67
2019-02-26T07:59:27.872Z,1.30
2019-02-26T08:03:33.011Z,1.17
2019-02-26T08:07:37.971Z,1.10
2019-02-26T08:11:45.823Z,1.27
2019-02-26T08:15:49.523Z,0.97
2019-02-26T08:19:54.405Z,0.63
2019-02-26T08:23:59.561Z,0.70
2019-02-26T08:28:04.455Z,1.80
2019-02-26T08:32:09.390Z,1.10
2019-02-26T08:36:14.380Z,0.83
2019-02-26T08:40:19.447Z,0.93
2019-02-26T08:44:24.323Z,0.60
2019-02-26T08:48:29.627Z,0.80
2019-02-26T08:52:34.525Z,0.80
2019-02-26T08:56:40.958Z,0.53
2019-02-26T09:00:46.153Z,1.03
2019-02-26T09:04:51.079Z,1.20
2019-02-26T09:08:57.944Z,0.60
2019-02-26T09:13:02.584Z,1.00
2019-02-26T09:17:07.554Z,0.80
2019-02-26T09:21:13.489Z,0.73
2019-02-26T09:25:21.027Z,0.67
2019-02-26T09:29:25.583Z,0.50
2019-02-26T09:33:32.839Z,0.70
2019-02-26T09:37:37.061Z,0.57
2019-02-26T09:41:44.939Z,1.00
2019-02-26T09:45:50.507Z,1.13
2019-02-26T09:49:56.184Z,0.80
2019-02-26T09:54:01.614Z,0.60
2019-02-26T09:58:06.510Z,0.80
2019-02-26T10:02:11.519Z,0.60
2019-02-26T10:06:18.611Z,0.73
2019-02-26T10:10:25.368Z,0.78
2019-02-26T10:14:31.097Z,0.50
2019-02-26T10:18:36.875Z,0.70
2019-02-26T10:22:41.761Z,0.80
2019-02-26T10:26:46.650Z,0.50
2019-02-26T10:30:54.411Z,0.50
2019-02-26T10:34:58.497Z,0.80
2019-02-26T10:39:04.007Z,0.43
2019-02-26T10:43:08.901Z,0.90
2019-02-26T10:47:13.990Z,0.57
2019-02-26T10:51:25.822Z,0.97
2019-02-26T10:55:31.459Z,0.70
2019-02-26T10:59:32.502Z,0.83
2019-02-26T11:03:40.914Z,1.30
2019-02-26T11:07:44.208Z,0.60
2019-02-26T11:11:49.286Z,0.50
2019-02-26T11:15:56.676Z,0.40
2019-02-26T11:20:01.181Z,0.30
2019-02-26T11:24:08.627Z,0.70
2019-02-26T11:28:14.038Z,0.50
2019-02-26T11:32:19.020Z,0.40
2019-02-26T11:36:25.161Z,0.40
2019-02-26T11:40:30.744Z,0.70
2019-02-26T11:44:35.778Z,0.70
2019-02-26T11:48:40.763Z,0.50
2019-02-26T11:52:45.680Z,0.40
2019-02-26T11:56:52.484Z,0.93
2019-02-26T12:00:58.993Z,0.60
2019-02-26T12:05:05.622Z,0.40
2019-02-26T12:09:11.410Z,0.53
2019-02-26T12:13:19.715Z,0.50
2019-02-26T12:17:24.228Z,0.50
2019-02-26T12:21:29.853Z,0.50
2019-02-26T12:25:35.946Z,0.40
2019-02-26T12:29:43.652Z,0.50
2019-02-26T12:33:47.857Z,0.40
2019-02-26T12:37:55.708Z,0.40
2019-02-26T12:41:59.562Z,0.50
2019-02-26T12:46:05.432Z,0.30
2019-02-26T12:50:14.159Z,0.40
2019-02-26T12:54:19.039Z,0.60
2019-02-26T12:58:27.555Z,0.60
2019-02-26T13:02:31.588Z,0.50
2019-02-26T13:06:38.273Z,0.50
2019-02-26T13:10:46.647Z,0.50
2019-02-26T13:14:51.217Z,0.70
2019-02-26T13:19:00.791Z,0.40
2019-02-26T13:23:16.276Z,0.37
2019-02-26T13:27:09.680Z,0.67
2019-02-26T13:31:18.306Z,0.57
2019-02-26T13:35:22.590Z,0.43
2019-02-26T13:39:36.813Z,0.53
2019-02-26T13:43:34.338Z,0.80
2019-02-26T13:47:39.359Z,0.70
2019-02-26T13:51:44.353Z,0.63
2019-02-26T13:55:49.254Z,0.60
2019-02-26T13:59:54.162Z,0.70
2019-02-26T14:03:59.068Z,0.60
2019-02-26T14:08:04.370Z,0.43
2019-02-26T14:12:09.317Z,0.60
2019-02-26T14:16:14.247Z,0.57
2019-02-26T14:20:19.393Z,0.50
2019-02-26T14:24:24.481Z,0.50
2019-02-26T14:28:34.952Z,0.70
2019-02-26T14:32:45.589Z,0.63
2019-02-26T14:36:58.843Z,0.40
2019-02-26T14:41:10.081Z,0.50
2019-02-26T14:45:21.256Z,0.80
2019-02-26T14:49:34.371Z,0.53
2019-02-26T14:53:44.775Z,0.60
2019-02-26T14:57:49.872Z,0.50
2019-02-26T15:01:54.883Z,0.73
2019-02-26T15:05:59.767Z,0.70
2019-02-26T15:10:04.878Z,0.57
2019-02-26T15:14:09.780Z,1.07
2019-02-26T15:18:14.809Z,0.50
2019-02-26T15:22:20.037Z,0.50
2019-02-26T15:26:24.930Z,0.80
2019-02-26T15:30:29.927Z,1.20
2019-02-26T15:34:34.820Z,3.00
2019-02-26T15:38:39.750Z,0.80
2019-02-26T15:42:44.818Z,0.50
2019-02-26T15:46:49.730Z,0.80
2019-02-26T15:50:54.663Z,0.60
2019-02-26T15:54:59.804Z,0.73
2019-02-26T15:59:05.271Z,0.70
2019-02-26T16:03:10.347Z,0.67
2019-02-26T16:07:16.613Z,0.87
2019-02-26T16:11:21.537Z,0.83
2019-02-26T16:15:26.400Z,0.60
2019-02-26T16:19:31.296Z,1.57
2019-02-26T16:23:36.235Z,0.80
2019-02-26T16:27:41.121Z,0.77
2019-02-26T16:31:46.049Z,0.70
2019-02-26T16:35:52.285Z,0.80
2019-02-26T16:39:58.197Z,0.73
2019-02-26T16:44:03.643Z,3.03
2019-02-26T16:48:08.520Z,0.97
2019-02-26T16:52:13.554Z,1.60
2019-02-26T16:56:21.393Z,1.23
2019-02-26T17:00:25.138Z,1.20
2019-02-26T17:04:30.919Z,1.13
2019-02-26T17:08:35.948Z,1.60
2019-02-26T17:12:40.953Z,0.70
2019-02-26T17:16:45.914Z,1.00
2019-02-26T17:20:51.052Z,1.20
2019-02-26T17:24:56.020Z,1.30
2019-02-26T17:29:00.927Z,0.90
2019-02-26T17:33:06.041Z,1.50
2019-02-26T17:37:10.917Z,1.27
2019-02-26T17:41:16.861Z,1.47
2019-02-26T17:45:21.932Z,2.63
2019-02-26T17:49:26.834Z,0.93
2019-02-26T17:53:31.746Z,1.50
2019-02-26T17:57:36.945Z,1.43
2019-02-26T18:01:41.971Z,1.37
2019-02-26T18:05:51.323Z,1.43
2019-02-26T18:09:53.474Z,1.70
2019-02-26T18:14:00.192Z,1.20
2019-02-26T18:18:05.117Z,0.90
2019-02-26T18:22:10.010Z,1.00
2019-02-26T18:26:17.533Z,1.50
2019-02-26T18:30:23.062Z,1.13
2019-02-26T18:34:27.979Z,0.83
2019-02-26T18:38:32.886Z,1.30
2019-02-26T18:42:38.726Z,1.23
2019-02-26T18:46:44.346Z,1.37
2019-02-26T18:50:49.274Z,1.10
2019-02-26T18:54:55.036Z,1.10
2019-02-26T18:59:00.008Z,1.20
2019-02-26T19:03:08.654Z,1.40
2019-02-26T19:07:12.554Z,1.90
2019-02-26T19:11:17.442Z,2.50
2019-02-26T19:15:22.538Z,1.67
2019-02-26T19:19:27.479Z,2.57
2019-02-26T19:23:32.399Z,1.40
2019-02-26T19:27:37.451Z,2.30
2019-02-26T19:31:42.828Z,2.07
2019-02-26T19:35:48.170Z,1.47
2019-02-26T19:39:53.401Z,2.13
2019-02-26T19:44:00.143Z,1.83
2019-02-26T19:48:04.957Z,1.30
2019-02-26T19:52:10.077Z,1.20
2019-02-26T19:56:14.965Z,1.10
2019-02-26T20:00:20.513Z,1.10
2019-02-26T20:04:26.470Z,1.40
2019-02-26T20:08:31.356Z,1.70
2019-02-26T20:12:36.279Z,1.53
2019-02-26T20:16:41.262Z,1.80
2019-02-26T20:20:49.682Z,1.40
2019-02-26T20:24:54.851Z,1.10
2019-02-26T20:28:59.795Z,1.60
2019-02-26T20:33:04.881Z,1.30
2019-02-26T20:37:10.006Z,0.97
2019-02-26T20:41:14.968Z,1.30
2019-02-26T20:45:19.911Z,1.57
2019-02-26T20:49:25.856Z,1.90
2019-02-26T20:53:30.777Z,2.33
2019-02-26T20:57:37.702Z,1.97
2019-02-26T21:01:43.028Z,1.83
2019-02-26T21:05:48.278Z,1.60
2019-02-26T21:09:53.329Z,1.40
2019-02-26T21:13:58.226Z,3.07
2019-02-26T21:18:04.342Z,1.83
2019-02-26T21:22:09.280Z,2.33
2019-02-26T21:26:14.340Z,3.47
2019-02-26T21:30:19.650Z,5.40
2019-02-26T21:34:24.605Z,5.73
2019-02-26T21:38:29.607Z,6.70
2019-02-26T21:42:34.616Z,4.43
2019-02-26T21:46:39.904Z,4.50
2019-02-26T21:50:44.812Z,5.90
2019-02-26T21:54:50.027Z,4.17
2019-02-26T21:58:56.953Z,3.00
2019-02-26T22:03:01.483Z,2.73
2019-02-26T22:07:06.392Z,3.50
2019-02-26T22:11:11.902Z,2.47
2019-02-26T22:15:16.922Z,2.20
2019-02-26T22:19:21.834Z,2.17
2019-02-26T22:23:26.801Z,2.67
2019-02-26T22:27:33.763Z,2.47
2019-02-26T22:31:38.539Z,2.10
2019-02-26T22:35:43.509Z,2.60
2019-02-26T22:39:48.389Z,2.80
2019-02-26T22:43:53.326Z,2.73
2019-02-26T22:47:58.193Z,2.30
2019-02-26T22:52:03.106Z,2.60
2019-02-26T22:56:08.135Z,2.23
2019-02-26T23:01:01.972Z,2.30
2019-02-26T23:05:07.209Z,1.57
2019-02-26T23:09:17.610Z,2.67
2019-02-26T23:13:22.062Z,2.40
2019-02-26T23:17:29.042Z,1.73
2019-02-26T23:21:34.589Z,2.03
2019-02-26T23:25:39.934Z,1.90
2019-02-26T23:29:46.046Z,1.40
2019-02-26T23:33:51.259Z,2.20
2019-02-26T23:37:57.217Z,1.90
2019-02-26T23:42:05.858Z,1.70
2019-02-26T23:46:10.113Z,2.20
2019-02-26T23:50:15.248Z,1.50
2019-02-26T23:54:20.570Z,1.43
2019-02-26T23:58:25.752Z,1.80
